Terminal Aerodrome Forecast
Issued by NWS Detroit/Pontiac, MI

Home | Current Version | Previous Version | Text Only | Print | Product List | Glossary On
Versions: 1 2 3 4 5 6 7 8 9 10 11 12 13 14
000
FTUS43 KDTX 280522
TAFFNT
TAF
KFNT 280522Z 2806/2906 22005KT P6SM SKC
     FM281400 23009KT P6SM SCT200
     FM281700 20012G20KT P6SM BKN150
     FM290000 17010KT P6SM OVC120
     FM290300 19011KT P6SM OVC080 WS015/26045KT PROB30 2904/2906 6SM
      SHRA OVC060=

USA.gov is the U.S. government's official web portal to all federal, state and local government web resources and services.